Summerfield, Louisiana
Current Conditions -  °F | °C
As of 11:53 AM on Saturday 20 Dec 2014 (Local Time) from KELD Reporting Station
Scattered Clouds Scattered Clouds  
Wind Chill: 47°   Ceiling: Unl
Heat Index: 49°   Visibility: 10mi
Dew Point: 40°   Wind: 6mph
Humidity: 71%   Direction: 50°NE
Pressure: 30.24"   Gusts: NA
Location:  32.91°N, 92.83°W
Report Text: KELD 201753Z AUTO 05005KT 10SM SCT017 09/04 A3024 RMK AO2 SLP240 T00940044 10100 20028 58014
Loading
Personal Weather Stations






























Interactive Weather Map New forecast layout! Learn more

10-Day Weather Forecast

Advertisements
Track Severe Weather on mobile